createdAt,value
2022-08-12T00:04:20.335Z,627
2022-08-12T00:09:38.843Z,644
2022-08-12T00:14:57.588Z,605
2022-08-12T00:20:16.351Z,551
2022-08-12T00:25:51.152Z,601
2022-08-12T00:31:42.347Z,629
2022-08-12T00:37:07.284Z,646
2022-08-12T00:42:32.421Z,622
2022-08-12T00:47:50.882Z,657
2022-08-12T00:53:09.389Z,686
2022-08-12T00:58:27.871Z,724
2022-08-12T01:03:46.630Z,707
2022-08-12T01:09:05.136Z,676
2022-08-12T01:14:23.345Z,672
2022-08-12T01:19:41.832Z,656
2022-08-12T01:25:00.291Z,661
2022-08-12T01:30:18.793Z,676
2022-08-12T01:35:37.576Z,688
2022-08-12T01:40:56.038Z,695
2022-08-12T01:46:14.494Z,688
2022-08-12T01:52:14.952Z,651
2022-08-12T01:57:57.422Z,619
2022-08-12T02:03:19.217Z,572
2022-08-12T02:08:37.972Z,524
2022-08-12T02:13:56.748Z,498
2022-08-12T02:19:22.767Z,465
2022-08-12T02:24:41.273Z,456
2022-08-12T02:30:00.038Z,466
2022-08-12T02:35:18.508Z,470
2022-08-12T02:40:36.772Z,470
2022-08-12T02:45:55.556Z,480
2022-08-12T02:51:14.295Z,498
2022-08-12T02:56:32.254Z,494
2022-08-12T03:01:50.866Z,498
2022-08-12T03:07:09.091Z,481
2022-08-12T03:12:28.567Z,464
2022-08-12T03:18:23.438Z,465
2022-08-12T03:23:46.950Z,458
2022-08-12T03:29:05.467Z,457
2022-08-12T03:34:23.652Z,457
2022-08-12T03:39:42.178Z,472
2022-08-12T03:45:00.443Z,479
2022-08-12T03:50:18.958Z,480
2022-08-12T03:55:37.157Z,484
2022-08-12T04:00:55.412Z,508
2022-08-12T04:06:13.922Z,513
2022-08-12T04:11:32.676Z,518
2022-08-12T04:17:03.234Z,526
2022-08-12T04:22:21.437Z,529
2022-08-12T04:27:39.644Z,519
2022-08-12T04:32:58.415Z,522
2022-08-12T04:38:16.380Z,524
2022-08-12T04:43:54.354Z,537
2022-08-12T04:49:20.397Z,553
2022-08-12T04:54:38.607Z,572
2022-08-12T04:59:57.654Z,576
2022-08-12T05:05:16.134Z,580
2022-08-12T05:10:35.710Z,563
2022-08-12T05:16:04.107Z,572
2022-08-12T05:21:27.544Z,582
2022-08-12T05:26:46.300Z,598
2022-08-12T05:32:05.060Z,607
2022-08-12T05:37:23.532Z,609
2022-08-12T05:42:42.421Z,572
2022-08-12T05:48:01.608Z,549
2022-08-12T05:53:20.088Z,593
2022-08-12T05:58:38.310Z,579
2022-08-12T06:03:56.516Z,557
2022-08-12T06:09:14.666Z,561
2022-08-12T06:14:33.592Z,574
2022-08-12T06:20:22.190Z,613
2022-08-12T06:25:52.479Z,627
2022-08-12T06:31:27.292Z,572
2022-08-12T06:36:45.886Z,533
2022-08-12T06:42:31.211Z,520
2022-08-12T06:47:51.861Z,498
2022-08-12T06:53:10.314Z,475
2022-08-12T06:58:28.791Z,460
2022-08-12T07:03:47.288Z,454
2022-08-12T07:09:05.717Z,455
2022-08-12T07:14:24.219Z,451
2022-08-12T07:19:45.326Z,442
2022-08-12T07:25:04.293Z,431
2022-08-12T07:30:22.501Z,434
2022-08-12T07:35:41.278Z,433
2022-08-12T07:40:59.454Z,427
2022-08-12T07:46:17.647Z,429
2022-08-12T07:51:35.885Z,421
2022-08-12T07:56:54.352Z,417
2022-08-12T08:02:13.144Z,414
2022-08-12T08:07:31.991Z,411
2022-08-12T08:12:49.873Z,433
2022-08-12T08:18:08.353Z,452
2022-08-12T08:23:29.413Z,464
2022-08-12T08:28:55.498Z,472
2022-08-12T08:34:33.288Z,480
2022-08-12T08:40:12.543Z,472
2022-08-12T08:45:15.373Z,474
2022-08-12T08:50:34.179Z,475
2022-08-12T08:56:04.436Z,492
2022-08-12T09:01:24.062Z,672
2022-08-12T09:06:53.357Z,563
2022-08-12T09:12:14.740Z,488
2022-08-12T09:17:48.163Z,471
2022-08-12T09:23:07.886Z,472
2022-08-12T09:34:27.014Z,500
2022-08-12T09:40:02.916Z,467
2022-08-12T09:47:57.027Z,475
2022-08-12T09:53:29.168Z,432
2022-08-12T09:59:01.268Z,417
2022-08-12T10:04:20.985Z,434
2022-08-12T10:09:57.847Z,427
2022-08-12T10:16:01.183Z,405
2022-08-12T10:21:23.971Z,402
2022-08-12T10:26:56.058Z,398
2022-08-12T10:32:20.344Z,391
2022-08-12T10:38:33.117Z,393
2022-08-12T10:44:01.982Z,393
2022-08-12T10:50:02.167Z,402
2022-08-12T10:56:13.825Z,450
2022-08-12T11:01:49.494Z,430
2022-08-12T11:10:07.291Z,587
2022-08-12T11:15:33.650Z,591
2022-08-12T11:21:51.315Z,570
2022-08-12T11:27:21.430Z,572
2022-08-12T11:32:40.988Z,614
2022-08-12T11:38:06.002Z,649
2022-08-12T11:43:27.526Z,648
2022-08-12T11:49:20.544Z,648
2022-08-12T11:54:50.895Z,652
2022-08-12T12:02:00.298Z,662
2022-08-12T12:07:34.099Z,669
2022-08-12T12:14:11.128Z,611
2022-08-12T12:19:39.616Z,563
2022-08-12T12:25:09.086Z,534
2022-08-12T12:30:32.540Z,535
2022-08-12T12:36:06.768Z,475
2022-08-12T12:42:40.585Z,431
2022-08-12T12:48:19.443Z,417
2022-08-12T12:54:07.404Z,426
2022-08-12T12:59:33.643Z,428
2022-08-12T13:05:16.298Z,426
2022-08-12T13:10:50.219Z,435
2022-08-12T13:16:14.324Z,414
2022-08-12T13:21:42.927Z,413
2022-08-12T13:27:01.855Z,409
2022-08-12T13:32:30.705Z,393
2022-08-12T13:37:53.278Z,380
2022-08-12T13:43:13.829Z,393
2022-08-12T13:48:59.621Z,416
2022-08-12T13:54:21.097Z,434
2022-08-12T13:59:48.016Z,417
2022-08-12T14:05:30.192Z,411
2022-08-12T14:10:58.980Z,459
2022-08-12T14:16:32.325Z,483
2022-08-12T14:22:10.300Z,484
2022-08-12T14:28:02.947Z,480
2022-08-12T14:33:24.694Z,479
2022-08-12T14:38:43.118Z,477
2022-08-12T14:44:57.124Z,473
2022-08-12T14:50:34.592Z,476
2022-08-12T15:00:31.484Z,475
2022-08-12T15:06:00.743Z,475
2022-08-12T15:12:13.689Z,474
2022-08-12T15:17:42.165Z,472
2022-08-12T15:23:02.679Z,473
2022-08-12T15:28:22.435Z,469
2022-08-12T15:33:45.540Z,466
2022-08-12T15:39:04.557Z,466
2022-08-12T15:44:39.048Z,462
2022-08-12T15:50:01.290Z,461
2022-08-12T15:55:23.316Z,462
2022-08-12T16:00:52.693Z,458
2022-08-12T16:06:17.238Z,455
2022-08-12T16:12:22.328Z,456
2022-08-12T16:18:14.515Z,455
2022-08-12T16:23:52.368Z,447
2022-08-12T16:29:19.482Z,442
2022-08-12T16:34:42.579Z,442
2022-08-12T16:40:18.626Z,439
2022-08-12T16:46:04.034Z,440
2022-08-12T16:51:51.604Z,442
2022-08-12T16:57:10.126Z,442
2022-08-12T17:02:31.341Z,443
2022-08-12T17:07:52.975Z,439
2022-08-12T17:13:11.946Z,439
2022-08-12T17:18:39.685Z,438
2022-08-12T17:24:30.188Z,438
2022-08-12T17:30:01.868Z,436
2022-08-12T17:35:29.762Z,436
2022-08-12T17:41:00.868Z,434
2022-08-12T17:47:15.425Z,435
2022-08-12T17:52:56.055Z,431
2022-08-12T17:58:22.052Z,432
2022-08-12T18:03:57.307Z,432
2022-08-12T18:09:53.540Z,436
2022-08-12T18:15:21.469Z,437
2022-08-12T18:21:24.466Z,433
2022-08-12T18:27:28.184Z,429
2022-08-12T18:33:05.647Z,433
2022-08-12T18:38:30.098Z,432
2022-08-12T18:43:57.875Z,433
2022-08-12T18:49:25.041Z,436
2022-08-12T18:54:59.406Z,435
2022-08-12T19:00:27.962Z,437
2022-08-12T19:05:52.803Z,437
2022-08-12T19:11:14.926Z,436
2022-08-12T19:16:34.093Z,438
2022-08-12T19:21:56.842Z,439
2022-08-12T19:27:16.247Z,440
2022-08-12T19:32:34.525Z,439
2022-08-12T19:38:04.656Z,437
2022-08-12T19:43:25.611Z,440
2022-08-12T19:49:39.335Z,439
2022-08-12T19:54:58.286Z,443
2022-08-12T20:00:17.123Z,444
2022-08-12T20:06:03.964Z,443
2022-08-12T20:12:10.531Z,443
2022-08-12T20:17:50.381Z,441
2022-08-12T20:23:11.682Z,442
2022-08-12T20:28:36.845Z,446
2022-08-12T20:33:56.053Z,444
2022-08-12T20:39:17.698Z,444
2022-08-12T20:45:22.654Z,444
2022-08-12T20:51:15.864Z,445
2022-08-12T20:56:37.569Z,445
2022-08-12T21:02:04.801Z,445
2022-08-12T21:07:23.884Z,444
2022-08-12T21:12:42.775Z,446
2022-08-12T21:18:07.935Z,450
2022-08-12T21:23:49.390Z,448
2022-08-12T21:29:16.531Z,447
2022-08-12T21:34:34.743Z,444
2022-08-12T21:39:56.269Z,444
2022-08-12T21:45:44.887Z,448
2022-08-12T21:51:22.848Z,445
2022-08-12T21:57:08.922Z,447
2022-08-12T22:02:30.869Z,444
2022-08-12T22:08:06.303Z,442
2022-08-12T22:14:02.896Z,445
2022-08-12T22:19:27.203Z,445
2022-08-12T22:24:45.995Z,444
2022-08-12T22:30:06.999Z,445
2022-08-12T22:35:29.089Z,447
2022-08-12T22:41:17.502Z,448
2022-08-12T22:46:41.204Z,447
2022-08-12T22:52:12.237Z,445
2022-08-12T22:57:48.894Z,445
2022-08-12T23:03:47.279Z,444
2022-08-12T23:09:11.815Z,445
2022-08-12T23:14:34.562Z,447
2022-08-12T23:19:52.782Z,445
2022-08-12T23:25:19.203Z,444
2022-08-12T23:31:12.749Z,446
2022-08-12T23:36:31.996Z,449
2022-08-12T23:42:16.313Z,449
2022-08-12T23:47:38.299Z,450
2022-08-12T23:53:05.490Z,451
2022-08-12T23:58:40.414Z,452
